Amherst, Virginia
Current Conditions -  °F | °C
As of 9:54 AM on Wednesday 26 Nov 2014 (Local Time) from KLYH Reporting Station
Light Rain Light Rain  
Wind Chill: 32°   Ceiling: 900
Heat Index: 39°   Visibility: 7mi
Dew Point: 38°   Wind: 12mph
Humidity: 96%   Direction: 50°NE
Pressure: 30.02"   Gusts: NA
Location:  37.59°N, 79.05°W
Report Text: KLYH 261454Z 05010KT 7SM -RA BKN009 BKN013 OVC019 04/03 A3002 RMK AO2 SLP169 P0006 60037 T00390033 53003
Loading
Personal Weather Stations






























Interactive Weather Map New forecast layout! Learn more

10-Day Weather Forecast

Advertisements
Track Severe Weather on mobile